createdAt,value
2023-01-07T00:01:21.225Z,98869.37333922338
2023-01-07T00:04:16.977Z,98875.62444832176
2023-01-07T00:07:16.841Z,98871.27851943513
2023-01-07T00:11:19.403Z,98873.07678402607
2023-01-07T00:14:16.362Z,98873.20576800797
2023-01-07T00:17:16.036Z,98872.7079589533
2023-01-07T00:21:17.203Z,98879.43723052891
2023-01-07T00:24:18.265Z,98872.95084651299
2023-01-07T00:27:16.018Z,98871.65242692691
2023-01-07T00:31:17.645Z,98869.9864848537
2023-01-07T00:34:16.848Z,98871.87275597116
2023-01-07T00:38:21.066Z,98875.90992012693
2023-01-07T00:41:16.175Z,98871.85625849014
2023-01-07T00:44:16.455Z,98869.04695593893
2023-01-07T00:47:16.514Z,98869.95133166916
2023-01-07T00:51:17.584Z,98865.37140270132
2023-01-07T00:54:16.869Z,98868.76140580224
2023-01-07T00:57:16.554Z,98869.08668891329
2023-01-07T01:01:16.634Z,98871.25814488252
2023-01-07T01:04:16.788Z,98869.44986987558
2023-01-07T01:07:17.059Z,98872.3978781489
2023-01-07T01:11:16.219Z,98874.11336022383
2023-01-07T01:14:16.181Z,98870.5754353202
2023-01-07T01:17:16.193Z,98867.3955301796
2023-01-07T01:21:15.825Z,98868.54286957248
2023-01-07T01:24:15.937Z,98872.77550437259
2023-01-07T01:27:16.055Z,98874.79600296059
2023-01-07T01:31:16.127Z,98872.18894625088
2023-01-07T01:34:16.694Z,98871.22668489882
2023-01-07T01:37:16.785Z,98876.93899714891
2023-01-07T01:41:16.537Z,98872.14178408681
2023-01-07T01:44:51.183Z,98877.22790408845
2023-01-07T01:47:21.297Z,98877.78908677837
2023-01-07T01:51:20.312Z,98879.90495276698
2023-01-07T01:54:18.542Z,98872.38379242423
2023-01-07T01:57:18.377Z,98873.05526803974
2023-01-07T02:01:16.369Z,98871.41639964086
2023-01-07T02:04:20.978Z,98873.3145466204
2023-01-07T02:07:17.632Z,98869.50171868449
2023-01-07T02:11:30.529Z,98874.90153399248
2023-01-07T02:14:33.199Z,98870.88104686272
2023-01-07T02:17:26.133Z,98867.01681893757
2023-01-07T02:21:29.315Z,98868.58007170256
2023-01-07T02:25:12.034Z,98867.44372142838
2023-01-07T02:27:25.755Z,98865.79877317099
2023-01-07T02:31:35.836Z,98870.22681186373
2023-01-07T02:34:24.451Z,98868.19732169862
2023-01-07T02:37:25.189Z,98866.65986414545
2023-01-07T02:41:25.226Z,98869.40877165656
2023-01-07T02:44:25.356Z,98867.46785862288
2023-01-07T02:47:22.555Z,98860.57063030642
2023-01-07T02:51:16.255Z,98856.83255925166
2023-01-07T02:54:21.228Z,98857.13524584065
2023-01-07T02:57:33.752Z,98848.19262545883
2023-01-07T03:02:06.553Z,98850.2452931841
2023-01-07T03:04:44.784Z,98847.30024457886
2023-01-07T03:07:28.021Z,98847.11410881495
2023-01-07T03:11:17.905Z,98847.379002193
2023-01-07T03:14:19.185Z,98847.55000797822
2023-01-07T03:17:20.310Z,98843.95048971547
2023-01-07T03:21:20.268Z,98841.41300244644
2023-01-07T03:24:16.159Z,98837.78329946153
2023-01-07T03:27:19.316Z,98839.98674936492
2023-01-07T03:31:16.562Z,98838.35330341163
2023-01-07T03:34:20.297Z,98833.67785198276
2023-01-07T03:37:19.103Z,98835.1809824715
2023-01-07T03:42:40.696Z,98830.41058872944
2023-01-07T03:44:16.576Z,98828.31277205455
2023-01-07T03:47:16.977Z,98828.27478369485
2023-01-07T03:51:16.365Z,98828.76226710278
2023-01-07T03:54:16.785Z,98831.98868036889
2023-01-07T03:57:16.831Z,98827.89980068628
2023-01-07T04:01:15.803Z,98832.08987961827
2023-01-07T04:04:16.243Z,98833.2036910839
2023-01-07T04:07:16.329Z,98836.57422396624
2023-01-07T04:11:16.009Z,98839.84953255091
2023-01-07T04:14:16.346Z,98838.79889400407
2023-01-07T04:17:16.343Z,98837.083993307
2023-01-07T04:21:15.926Z,98836.09201268983
2023-01-07T04:24:16.072Z,98841.33273505085
2023-01-07T04:27:16.276Z,98839.76872488749
2023-01-07T04:31:15.933Z,98836.58325075633
2023-01-07T04:34:16.266Z,98838.11029666661
2023-01-07T04:37:16.110Z,98832.73615306622
2023-01-07T04:41:16.126Z,98832.46056698693
2023-01-07T04:44:17.856Z,98829.67430087186
2023-01-07T04:47:16.555Z,98833.23378751564
2023-01-07T04:51:15.669Z,98832.22130595602
2023-01-07T04:54:17.034Z,98833.04569870398
2023-01-07T04:57:16.119Z,98830.43275925583
2023-01-07T05:01:16.355Z,98835.59194803402
2023-01-07T05:04:16.831Z,98837.05510673737
2023-01-07T05:07:16.753Z,98839.84941000682
2023-01-07T05:11:21.537Z,98833.36626486218
2023-01-07T05:14:16.579Z,98827.80442627596
2023-01-07T05:17:16.613Z,98830.98219960374
2023-01-07T05:21:16.400Z,98831.47406080442
2023-01-07T05:24:16.789Z,98835.68717172577
2023-01-07T05:27:16.741Z,98832.94106730416
2023-01-07T05:31:15.920Z,98831.2313720994
2023-01-07T05:34:16.342Z,98823.77794951823
2023-01-07T05:37:16.139Z,98829.94744688309
2023-01-07T05:41:16.347Z,98829.15769556577
2023-01-07T05:44:16.642Z,98829.73432488923
2023-01-07T05:47:16.564Z,98830.50032108783
2023-01-07T05:51:15.938Z,98829.23881163952
2023-01-07T05:54:16.502Z,98832.2956307869
2023-01-07T05:57:16.228Z,98832.02785735157
2023-01-07T06:01:16.056Z,98836.70002521793
2023-01-07T06:04:16.316Z,98835.81567430367
2023-01-07T06:07:16.250Z,98838.04215517326
2023-01-07T06:11:16.479Z,98834.64628922538
2023-01-07T06:14:16.866Z,98831.88723371708
2023-01-07T06:17:17.004Z,98835.39927720813
2023-01-07T06:21:16.270Z,98839.34270015471
2023-01-07T06:24:16.098Z,98843.7699082762
2023-01-07T06:27:16.196Z,98844.15105024014
2023-01-07T06:31:15.483Z,98843.10071561055
2023-01-07T06:34:15.896Z,98844.41395435679
2023-01-07T06:37:17.897Z,98843.7513084984
2023-01-07T06:41:16.031Z,98842.65717448291
2023-01-07T06:44:16.448Z,98849.03973194533
2023-01-07T06:47:16.444Z,98845.0497169842
2023-01-07T06:51:16.222Z,98846.01957691781
2023-01-07T06:54:16.450Z,98848.13033332516
2023-01-07T06:57:16.459Z,98845.67714806371
2023-01-07T07:01:15.798Z,98851.14998271018
2023-01-07T07:04:16.189Z,98852.42305149324
2023-01-07T07:07:16.911Z,98858.29191618954
2023-01-07T07:11:15.865Z,98857.44174531463
2023-01-07T07:14:16.134Z,98856.72604207424
2023-01-07T07:17:16.444Z,98859.1184534512
2023-01-07T07:21:16.280Z,98859.53394025733
2023-01-07T07:24:16.805Z,98860.33931000336
2023-01-07T07:27:16.636Z,98863.43937454918
2023-01-07T07:31:16.581Z,98863.34022843272
2023-01-07T07:34:16.778Z,98861.61030751019
2023-01-07T07:37:16.706Z,98861.46002267239
2023-01-07T07:41:16.392Z,98864.14176739755
2023-01-07T07:44:16.664Z,98857.99235849135
2023-01-07T07:47:17.870Z,98860.24838576485
2023-01-07T07:51:16.827Z,98858.28627988901
2023-01-07T07:54:17.018Z,98858.80445335328
2023-01-07T07:57:16.817Z,98858.2781210105
2023-01-07T08:01:16.600Z,98857.77048622697
2023-01-07T08:04:16.923Z,98862.85100175024
2023-01-07T08:07:32.907Z,98864.14516849372
2023-01-07T08:11:16.003Z,98856.22748781087
2023-01-07T08:14:16.224Z,98854.60844035212
2023-01-07T08:17:16.173Z,98857.93861914655
2023-01-07T08:21:16.166Z,98860.00410981165
2023-01-07T08:24:16.608Z,98857.27914182252
2023-01-07T08:27:16.557Z,98855.05350238907
2023-01-07T08:31:16.545Z,98859.26670495712
2023-01-07T08:34:16.816Z,98859.98157714345
2023-01-07T08:37:16.708Z,98857.1767080903
2023-01-07T08:41:16.175Z,98863.92343046068
2023-01-07T08:44:16.446Z,98866.87396001184
2023-01-07T08:47:16.390Z,98862.29235934601
2023-01-07T08:51:15.799Z,98869.06162717663
2023-01-07T08:54:16.391Z,98872.20610418078
2023-01-07T08:57:16.969Z,98873.57739166776
2023-01-07T09:01:16.397Z,98878.18642999264
2023-01-07T09:04:16.396Z,98882.09805676343
2023-01-07T09:07:16.354Z,98879.07099731048
2023-01-07T09:11:16.479Z,98879.90344043887
2023-01-07T09:14:16.748Z,98874.04936426772
2023-01-07T09:17:16.816Z,98879.56916376464
2023-01-07T09:21:15.778Z,98880.579959492
2023-01-07T09:24:16.425Z,98886.00448909061
2023-01-07T09:27:16.769Z,98887.69639404246
2023-01-07T09:31:16.611Z,98891.58708534941
2023-01-07T09:34:16.830Z,98893.92730044898
2023-01-07T09:37:16.928Z,98889.37330928294
2023-01-07T09:41:27.772Z,98888.65771393638
2023-01-07T09:44:25.505Z,98886.03581452786
2023-01-07T09:47:19.509Z,98888.08949328017
2023-01-07T09:51:20.421Z,98885.34235992724
2023-01-07T09:54:25.696Z,98878.5980314779
2023-01-07T09:57:17.574Z,98878.15186643405
2023-01-07T10:01:27.113Z,98878.37140454841
2023-01-07T10:04:27.588Z,98873.16581023193
2023-01-07T10:07:26.440Z,98872.1161576653
2023-01-07T10:11:26.732Z,98858.7413656343
2023-01-07T10:14:39.963Z,98854.94873698389
2023-01-07T10:17:36.985Z,98858.41056423278
2023-01-07T10:21:21.790Z,98848.80792155856
2023-01-07T10:24:22.828Z,98848.14827765772
2023-01-07T10:27:24.332Z,98847.98209283546
2023-01-07T10:31:18.412Z,98844.72457916007
2023-01-07T10:34:21.788Z,98839.67082170078
2023-01-07T10:37:26.188Z,98839.14854970112
2023-01-07T10:41:21.799Z,98839.81514119772
2023-01-07T10:45:29.738Z,98834.52849588792
2023-01-07T10:47:29.435Z,98831.29544038861
2023-01-07T10:51:40.433Z,98823.34129605372
2023-01-07T10:54:35.216Z,98823.71404232657
2023-01-07T10:57:20.138Z,98821.16149206476
2023-01-07T11:01:23.185Z,98820.14563126888
2023-01-07T11:04:17.272Z,98816.23964054309
2023-01-07T11:07:27.548Z,98813.91156695268
2023-01-07T11:11:19.933Z,98813.95779214511
2023-01-07T11:14:21.050Z,98817.74073756527
2023-01-07T11:17:25.220Z,98815.03924325728
2023-01-07T11:21:42.905Z,98810.24469315495
2023-01-07T11:24:30.305Z,98806.2009568336
2023-01-07T11:27:18.187Z,98801.24892918053
2023-01-07T11:31:16.948Z,98798.14139686817
2023-01-07T11:34:21.526Z,98794.27790949585
2023-01-07T11:37:30.657Z,98794.04629654334
2023-01-07T11:41:21.575Z,98789.40249858426
2023-01-07T11:44:16.658Z,98786.0123854023
2023-01-07T11:47:17.451Z,98783.1744018892
2023-01-07T11:51:16.437Z,98781.02272402613
2023-01-07T11:54:20.977Z,98779.30270046569
2023-01-07T11:57:21.637Z,98773.19986601431
2023-01-07T12:01:18.281Z,98770.64806400287
2023-01-07T12:04:21.064Z,98766.15332562954
2023-01-07T12:07:17.350Z,98766.1031438338
2023-01-07T12:11:16.629Z,98764.63404312078
2023-01-07T12:14:23.743Z,98765.43346568759
2023-01-07T12:17:21.694Z,98763.42748451351
2023-01-07T12:31:24.517Z,98749.36690435187
2023-01-07T12:34:28.721Z,98747.05630019977
2023-01-07T12:37:27.416Z,98744.03197226013
2023-01-07T12:41:24.800Z,98739.83776369772
2023-01-07T12:44:25.023Z,98736.00358005274
2023-01-07T12:47:31.734Z,98736.35551098386
2023-01-07T12:51:30.430Z,98737.49343603264
2023-01-07T12:54:20.745Z,98733.0218051369
2023-01-07T12:57:20.263Z,98727.76216979635
2023-01-07T13:01:31.321Z,98730.28590665504
2023-01-07T13:04:39.637Z,98722.9919157151
2023-01-07T13:07:25.866Z,98723.75852620635
2023-01-07T13:11:23.890Z,98721.7568647901
2023-01-07T13:14:26.504Z,98717.01856616384
2023-01-07T13:17:23.629Z,98724.16318283588
2023-01-07T13:21:21.076Z,98717.97689201552
2023-01-07T13:24:55.446Z,98722.49153111495
2023-01-07T13:27:26.465Z,98725.28119349715
2023-01-07T13:31:36.851Z,98717.83827745347
2023-01-07T13:34:28.933Z,98717.94377851926
2023-01-07T13:37:46.338Z,98716.52878100458
2023-01-07T13:41:26.207Z,98718.09389904249
2023-01-07T13:44:50.427Z,98716.74179184287
2023-01-07T13:47:20.641Z,98716.29391178527
2023-01-07T13:51:26.271Z,98719.30715095338
2023-01-07T13:54:54.799Z,98712.35501328409
2023-01-07T13:57:40.570Z,98716.56053023967
2023-01-07T14:01:20.961Z,98714.22889171969
2023-01-07T14:04:51.078Z,98716.47467309893
2023-01-07T14:07:22.640Z,98717.3150421927
2023-01-07T14:11:17.338Z,98717.75245578753
2023-01-07T14:14:30.555Z,98717.78385785624
2023-01-07T14:17:27.083Z,98713.14248125396
2023-01-07T14:21:31.276Z,98715.1330093638
2023-01-07T14:24:33.486Z,98719.2310592195
2023-01-07T14:28:17.206Z,98718.54988035612
2023-01-07T14:31:21.770Z,98717.90085202317
2023-01-07T14:34:21.875Z,98718.10330980722
2023-01-07T14:37:27.872Z,98717.64506890507
2023-01-07T14:41:17.727Z,98719.88103688513
2023-01-07T14:44:32.616Z,98720.2416590829
2023-01-07T14:47:52.065Z,98723.00850893551
2023-01-07T14:51:51.287Z,98715.05671245162
2023-01-07T14:54:54.108Z,98715.02601389776
2023-01-07T14:57:29.594Z,98716.44985740866
2023-01-07T15:01:36.446Z,98711.72414331122
2023-01-07T15:05:08.455Z,98713.42778242029
2023-01-07T15:07:24.726Z,98713.64787535554
2023-01-07T15:21:29.278Z,98718.76934690331
2023-01-07T15:24:27.170Z,98725.17617405747
2023-01-07T15:27:27.363Z,98717.88292792626
2023-01-07T15:31:23.067Z,98720.73472959324
2023-01-07T15:34:19.139Z,98719.24253986301
2023-01-07T15:37:18.141Z,98723.79183942094
2023-01-07T15:41:25.614Z,98726.14031421201
2023-01-07T15:44:21.420Z,98721.31703511978
2023-01-07T15:47:49.897Z,98718.13096761334
2023-01-07T15:51:17.705Z,98713.36281490831
2023-01-07T15:54:23.520Z,98711.13136089595
2023-01-07T15:57:24.324Z,98706.01807463478
2023-01-07T16:01:18.534Z,98706.46849634277
2023-01-07T16:04:26.136Z,98708.68202475377
2023-01-07T16:07:22.621Z,98707.40684622568
2023-01-07T16:11:24.184Z,98707.90150872624
2023-01-07T16:14:19.774Z,98707.26891350617
2023-01-07T16:17:16.639Z,98709.77819481115
2023-01-07T16:21:17.109Z,98701.45394898133
2023-01-07T16:24:19.670Z,98705.2939083178
2023-01-07T16:27:29.008Z,98712.12828364476
2023-01-07T16:31:21.974Z,98713.92170070531
2023-01-07T16:34:55.749Z,98712.24353860437
2023-01-07T16:37:19.969Z,98713.61320981808
2023-01-07T16:41:23.453Z,98710.57640408621
2023-01-07T16:44:58.217Z,98708.57799057383
2023-01-07T16:47:20.708Z,98706.18496583337
2023-01-07T16:51:52.682Z,98705.36923522617
2023-01-07T16:54:34.349Z,98700.16646276796
2023-01-07T16:57:29.159Z,98700.44954014306
2023-01-07T17:01:28.434Z,98706.53359168008
2023-01-07T17:04:22.428Z,98703.61233379491
2023-01-07T17:07:23.888Z,98706.87553984417
2023-01-07T17:11:27.645Z,98704.89102234405
2023-01-07T17:14:58.111Z,98703.57072110056
2023-01-07T17:17:23.618Z,98701.13624755293
2023-01-07T17:21:40.863Z,98705.50591742796
2023-01-07T17:24:45.991Z,98706.29958448728
2023-01-07T17:27:24.058Z,98708.35205589331
2023-01-07T17:31:16.876Z,98709.20629712552
2023-01-07T17:34:17.079Z,98708.99228823243
2023-01-07T17:37:17.436Z,98710.70169369398
2023-01-07T17:43:35.109Z,98714.33502941871
2023-01-07T17:44:18.206Z,98714.22548741911
2023-01-07T17:47:25.197Z,98716.07117129702
2023-01-07T17:51:18.134Z,98715.13967481372
2023-01-07T17:54:20.186Z,98718.25855279529
2023-01-07T17:57:18.322Z,98717.07522817753
2023-01-07T18:01:20.700Z,98717.37591795567
2023-01-07T18:04:17.943Z,98715.56531873971
2023-01-07T18:07:16.983Z,98722.00541828056
2023-01-07T18:21:16.088Z,98713.17542775307
2023-01-07T18:24:18.852Z,98710.90941490117
2023-01-07T18:27:17.503Z,98713.31363037472
2023-01-07T18:31:16.476Z,98708.44789012415
2023-01-07T18:34:16.583Z,98708.76513222385
2023-01-07T18:37:18.023Z,98713.10666877497
2023-01-07T18:41:16.674Z,98708.43581907424
2023-01-07T18:44:16.920Z,98716.68998899251
2023-01-07T18:47:16.671Z,98722.4280414057
2023-01-07T18:51:16.558Z,98724.52281860265
2023-01-07T18:54:16.637Z,98727.26334090346
2023-01-07T18:57:16.863Z,98728.41626029728
2023-01-07T19:01:16.605Z,98726.98344498531
2023-01-07T19:04:18.071Z,98728.87052170337
2023-01-07T19:07:18.397Z,98730.0129362845
2023-01-07T19:11:16.353Z,98725.27992490909
2023-01-07T19:14:17.330Z,98722.5008161655
2023-01-07T19:17:17.405Z,98724.37890265133
2023-01-07T19:21:16.697Z,98724.29158617409
2023-01-07T19:24:17.061Z,98726.19862289345
2023-01-07T19:27:16.861Z,98730.11911478793
2023-01-07T19:31:27.287Z,98734.38859926054
2023-01-07T19:34:20.094Z,98732.21867469014
2023-01-07T19:37:20.644Z,98736.36993485456
2023-01-07T19:41:18.731Z,98743.55629628658
2023-01-07T19:44:16.848Z,98736.95070185425
2023-01-07T19:47:17.594Z,98731.74839281572
2023-01-07T19:51:16.300Z,98728.51678327129
2023-01-07T19:54:16.984Z,98731.39207321456
2023-01-07T19:57:16.488Z,98736.92741643192
2023-01-07T20:01:17.479Z,98734.9164944583
2023-01-07T20:04:16.697Z,98729.93292564471
2023-01-07T20:07:20.279Z,98735.31799797522
2023-01-07T20:11:16.228Z,98735.41314623976
2023-01-07T20:14:17.198Z,98733.90789315339
2023-01-07T20:17:17.407Z,98734.15971006565
2023-01-07T20:21:20.417Z,98738.46234972148
2023-01-07T20:24:18.370Z,98744.10068809838
2023-01-07T20:27:21.213Z,98738.73302273218
2023-01-07T20:31:19.909Z,98738.73302273218
2023-01-07T20:34:17.976Z,98739.10389812858
2023-01-07T20:37:17.829Z,98738.86966017353
2023-01-07T20:41:18.536Z,98735.30266219577
2023-01-07T20:44:20.224Z,98733.13692238534
2023-01-07T20:47:18.018Z,98732.25216809902
2023-01-07T20:51:19.959Z,98734.42706829634
2023-01-07T20:54:25.734Z,98736.4871727263
2023-01-07T20:57:21.291Z,98736.26084228366
2023-01-07T21:01:22.392Z,98732.75530792325
2023-01-07T21:04:18.905Z,98727.7930698263
2023-01-07T21:07:18.592Z,98727.73998776566
2023-01-07T21:11:18.528Z,98720.45082771406
2023-01-07T21:14:16.175Z,98722.0590766823
2023-01-07T21:17:16.227Z,98719.62478181283
2023-01-07T21:21:18.701Z,98716.65376748415
2023-01-07T21:24:17.707Z,98718.21826189107
2023-01-07T21:27:16.469Z,98718.61929765268
2023-01-07T21:31:16.327Z,98720.95393575086
2023-01-07T21:34:16.588Z,98713.63189209551
2023-01-07T21:37:16.514Z,98709.0607098555
2023-01-07T21:41:16.797Z,98709.00386439307
2023-01-07T21:44:16.804Z,98708.12862586987
2023-01-07T21:47:16.845Z,98701.5477903122
2023-01-07T21:51:18.701Z,98703.46600219175
2023-01-07T21:54:16.486Z,98699.19489489422
2023-01-07T21:57:16.910Z,98702.67489861115
2023-01-07T22:01:17.536Z,98699.349165283
2023-01-07T22:04:16.456Z,98699.39288832467
2023-01-07T22:07:18.258Z,98699.19168086827
2023-01-07T22:11:17.405Z,98698.87706024383
2023-01-07T22:14:17.999Z,98702.40653905425
2023-01-07T22:17:16.648Z,98702.84799367325
2023-01-07T22:21:17.502Z,98706.07397733456
2023-01-07T22:24:16.713Z,98701.37724459934
2023-01-07T22:27:16.743Z,98700.1153352371
2023-01-07T22:31:20.450Z,98696.9722892601
2023-01-07T22:34:16.869Z,98703.13528311289
2023-01-07T22:37:20.002Z,98701.97736913015
2023-01-07T22:41:17.035Z,98704.81703726303
2023-01-07T22:44:23.520Z,98704.31420482793
2023-01-07T22:47:20.433Z,98701.73651042269
2023-01-07T22:51:22.311Z,98702.8055998032
2023-01-07T22:54:17.672Z,98700.09317062868
2023-01-07T22:57:17.110Z,98705.05733292545
2023-01-07T23:01:17.861Z,98706.5744561694
2023-01-07T23:04:17.073Z,98712.71932293235
2023-01-07T23:11:47.755Z,98710.63775588771
2023-01-07T23:14:17.863Z,98704.63238993517
2023-01-07T23:17:16.110Z,98707.31521992825
2023-01-07T23:21:16.819Z,98704.52375657942
2023-01-07T23:24:16.982Z,98698.66765747758
2023-01-07T23:27:16.700Z,98694.58302585928
2023-01-07T23:31:16.035Z,98696.2234678865
2023-01-07T23:34:21.703Z,98688.40062673939
2023-01-07T23:37:16.525Z,98690.82919052026
2023-01-07T23:41:16.480Z,98698.40090407956
2023-01-07T23:44:17.560Z,98695.01596436347
2023-01-07T23:47:16.829Z,98692.01573153214
2023-01-07T23:51:18.404Z,98686.09153564542
2023-01-07T23:54:16.701Z,98685.73548175202
2023-01-07T23:57:16.696Z,98681.24126472224
